Flight Track Log - Related Links

Times and Time Zones

All times are in EST time to prevent confusion due to time zone crossing. See the N173DS flight status page for this flight to view local times or setup timezone preferences in your user account.

Time Position Orientation Groundspeed Altitude Reporting Facility
EST Latitude Longitude Course Direction KTS MPH feet Rate Location/Type
Wed 07:58:59 PM 30.5942 -90.9933 72° East 254 292 5,400  Level Houston Center
Wed 08:00:00 PM 30.6194 -90.9044 72° East 277 319 7,700 2,390 Climbing Houston Center
Wed 08:01:02 PM 30.6303 -90.8033 83° East 314 361 10,300 2,293 Climbing Houston Center
Wed 08:02:03 PM 30.6303 -90.6883 90° East 361 415 12,400 2,634 Climbing Houston Center
Wed 08:03:00 PM 30.3358 -90.3944 90° East  Level Estimated
Wed 08:03:05 PM 30.6319 -90.5586 89° East 398 458 15,700  Level Houston Center
Wed 08:04:06 PM 30.6319 -90.4181 90° East 434 499 19,500 3,415 Climbing Houston Center
Wed 08:05:08 PM 30.6342 -90.2733 89° East 446 513 22,700 3,268 Climbing Houston Center
Wed 08:06:09 PM 30.6369 -90.0900 89° East 470 541 26,200 2,683 Climbing Houston Center
Wed 08:07:11 PM 30.6364 -89.9308 90° East 488 562 28,200 2,049 Climbing Houston Center
Wed 08:08:12 PM 30.6394 -89.7647 89° East 505 581 30,400 2,390 Climbing Houston Center
Wed 08:09:14 PM 30.6400 -89.6000 90° East 505 581 33,100 2,195 Climbing Houston Center
Wed 08:10:15 PM 30.6400 -89.4381 90° East 499 574 34,900 1,707 Climbing Houston Center
Wed 08:11:17 PM 30.6408 -89.2717 90° East 510 587 36,600 1,854 Climbing Houston Center
Wed 08:12:18 PM 30.6406 -89.1078 90° East 508 585 38,700 1,756 Climbing Houston Center
Wed 08:13:20 PM 30.6400 -88.9356 90° East 495 570 40,200 1,073 Climbing Houston Center
Wed 08:14:21 PM 30.6392 -88.7742 90° East 502 578 40,900 393 Climbing Houston Center
Wed 08:15:22 PM 30.6381 -88.6075 90° East 518 596 41,000 49 Climbing Houston Center
Wed 08:16:24 PM 30.6383 -88.4322 90° East 544 626 41,000  Level Houston Center
Wed 08:17:25 PM 30.6369 -88.2547 90° East 555 639 41,000  Level Houston Center
Wed 08:18:26 PM 30.6356 -88.0792 90° East 551 634 41,000  Level Houston Center
Wed 08:19:28 PM 30.6347 -87.8703 90° East 547 629 41,000  Level Houston Center
Wed 08:20:29 PM 30.6331 -87.6994 91° East 536 617 41,000  Level Houston Center
Wed 08:21:25 PM 30.6050 -87.5575 103° East 542 624 41,000  Level Jacksonville Center
Wed 08:22:25 PM 30.5392 -87.4144 118° Southeast 507 583 41,000  Level Jacksonville Center
Wed 08:23:25 PM 30.4789 -87.2839 118° Southeast 502 578 41,000  Level Jacksonville Center
Wed 08:24:25 PM 30.4014 -87.1117 118° Southeast 507 583 41,000  Level Jacksonville Center
Wed 08:25:25 PM 30.3369 -86.9694 118° Southeast 507 583 41,000  Level Jacksonville Center
Wed 08:26:25 PM 30.2706 -86.8294 119° Southeast 507 583 41,000  Level Jacksonville Center
Wed 08:27:25 PM 30.2097 -86.6997 118° Southeast 507 583 41,000  Level Jacksonville Center
Wed 08:28:25 PM 30.1450 -86.5578 118° Southeast 507 583 41,000  Level Jacksonville Center
Wed 08:29:25 PM 30.0800 -86.4139 118° Southeast 507 583 41,000  Level Jacksonville Center
Wed 08:30:25 PM 30.0108 -86.2697 119° Southeast 507 583 41,000  Level Jacksonville Center
Wed 08:31:25 PM 29.9456 -86.1308 118° Southeast 507 583 41,000  Level Jacksonville Center
Wed 08:32:25 PM 29.8803 -85.9875 118° Southeast 507 583 41,000  Level Jacksonville Center
Wed 08:33:25 PM 29.8106 -85.8486 120° Southeast 507 583 41,000  Level Jacksonville Center
Wed 08:34:25 PM 29.7469 -85.7106 118° Southeast 502 578 41,000  Level Jacksonville Center
Wed 08:35:25 PM 29.6789 -85.5700 119° Southeast 502 578 41,000  Level Jacksonville Center
Wed 08:36:25 PM 29.6131 -85.4294 118° Southeast 502 578 41,000  Level Jacksonville Center
Wed 08:37:25 PM 29.5467 -85.2894 119° Southeast 502 578 41,000 -250 Level Jacksonville Center
Wed 08:38:25 PM 29.4783 -85.1517 120° Southeast 502 578 40,500 -1,250 Descending Jacksonville Center
Wed 08:39:25 PM 29.4139 -85.0167 119° Southeast 496 571 38,500 -2,000 Descending Jacksonville Center
Wed 08:40:25 PM 29.3492 -84.8867 120° Southeast 485 558 36,500 -1,950 Descending Jacksonville Center
Wed 08:41:25 PM 29.2822 -84.7447 118° Southeast 485 558 34,600 -1,900 Descending Jacksonville Center
Wed 08:42:25 PM 29.2194 -84.6106 118° Southeast 491 565 32,700 -1,950 Descending Jacksonville Center
Wed 08:43:25 PM 29.1503 -84.4761 120° Southeast 491 565 30,700 -2,000 Descending Jacksonville Center
Wed 08:44:25 PM 29.0850 -84.3419 119° Southeast 491 565 28,700 -1,950 Descending Jacksonville Center
Wed 08:45:25 PM 29.0217 -84.2128 119° Southeast 486 559 26,800 -1,850 Descending Jacksonville Center
Wed 08:46:25 PM 28.9772 -84.0675 109° East 486 559 25,000 -900 Descending Jacksonville Center
Wed 08:47:25 PM 28.9578 -83.9058 98° East 486 559 25,000  Level Jacksonville Center
Wed 08:48:25 PM 28.9464 -83.7444 95° East 499 574 25,000 -300 Level Jacksonville Center
Wed 08:49:25 PM 28.8889 -83.6064 115° Southeast 480 552 24,400 -1,350 Descending Jacksonville Center
Wed 08:50:25 PM 28.8039 -83.4992 132° Southeast 464 534 22,300 -2,050 Descending Jacksonville Center
Wed 08:51:25 PM 28.7208 -83.3897 131° Southeast 458 527 20,300 -2,000 Descending Jacksonville Center
Wed 08:53:22 PM 28.5667 -83.1833 130° Southeast 414 476 16,400 -1,932 Descending Tampa TRACON
Wed 08:54:22 PM 28.4833 -83.1000 139° Southeast 415 478 14,600 -1,700 Descending Tampa TRACON
Wed 08:55:22 PM 28.4167 -83.0000 127° Southeast 412 474 13,000 -1,650 Descending Tampa TRACON
Wed 08:56:22 PM 28.3167 -82.9333 150° Southeast 387 445 11,300 -1,737 Descending Tampa TRACON
Wed 08:57:16 PM 28.2333 -82.8833 152° Southeast 333 383 9,700 -1,650 Descending Tampa TRACON
Wed 08:58:22 PM 28.1667 -82.8167 139° Southeast 301 346 8,000 -1,500 Descending Tampa TRACON
Wed 08:59:16 PM 28.1167 -82.7500 130° Southeast 289 333 6,700 -1,474 Descending Tampa TRACON
Wed 09:00:16 PM 28.0667 -82.6833 130° Southeast 267 307 5,200 -810 Descending Tampa TRACON
Wed 09:01:22 PM 28.0000 -82.6167 139° Southeast 267 307 5,000 -619 Descending Tampa TRACON
Wed 09:02:22 PM 27.9333 -82.6167 180° South 249 287 3,900 -1,000 Descending Tampa TRACON
Wed 09:03:22 PM 27.8667 -82.6167 180° South 239 275 3,000 -446 Descending Tampa TRACON
Wed 09:04:23 PM 27.8167 -82.6167 180° South 219 252 3,000 -50 Level Tampa TRACON
Wed 09:05:23 PM 27.7667 -82.6000 164° South 240 276 2,900 -200 Descending Tampa TRACON
Wed 09:06:23 PM 27.8167 -82.5500 41° Northeast 224 258 2,600 -450 Descending Tampa TRACON
Wed 09:07:23 PM 27.8667 -82.5500 360° North 174 200 2,000 -700 Descending Tampa TRACON
Wed 09:08:23 PM 27.9000 -82.5500 360° North 144 166 1,200 -700 Descending Tampa TRACON
Wed 09:09:23 PM 27.9333 -82.5500 360° North 115 132 600 -600 Descending Tampa TRACON

Login

Don't have an account? Register now (free) for customized features, flight alerts, and more!